sensor_id;sensor_type;location;lat;lon;timestamp;P1;durP1;ratioP1;P2;durP2;ratioP2
47778;SDS011;33538;48.432;11.350;2024-03-23T00:54:16;5.80;;;2.83;;
47778;SDS011;33538;48.432;11.350;2024-03-23T00:56:42;4.63;;;3.05;;
47778;SDS011;33538;48.432;11.350;2024-03-23T00:59:08;4.45;;;2.45;;
47778;SDS011;33538;48.432;11.350;2024-03-23T01:01:34;5.85;;;3.05;;
47778;SDS011;33538;48.432;11.350;2024-03-23T01:04:00;5.05;;;2.88;;
47778;SDS011;33538;48.432;11.350;2024-03-23T01:06:25;4.93;;;2.90;;
47778;SDS011;33538;48.432;11.350;2024-03-23T01:08:53;5.72;;;2.55;;
47778;SDS011;33538;48.432;11.350;2024-03-23T01:11:18;4.40;;;2.88;;
47778;SDS011;33538;48.432;11.350;2024-03-23T01:13:44;4.25;;;2.67;;
47778;SDS011;33538;48.432;11.350;2024-03-23T01:16:10;6.00;;;2.88;;
47778;SDS011;33538;48.432;11.350;2024-03-23T01:18:36;6.13;;;2.80;;
47778;SDS011;33538;48.432;11.350;2024-03-23T01:21:02;4.20;;;2.47;;
47778;SDS011;33538;48.432;11.350;2024-03-23T01:23:28;6.78;;;2.47;;
47778;SDS011;33538;48.432;11.350;2024-03-23T01:25:55;4.30;;;2.70;;
47778;SDS011;33538;48.432;11.350;2024-03-23T01:28:21;3.55;;;2.20;;
47778;SDS011;33538;48.432;11.350;2024-03-23T01:30:47;4.55;;;2.65;;
47778;SDS011;33538;48.432;11.350;2024-03-23T01:33:13;6.13;;;3.13;;
47778;SDS011;33538;48.432;11.350;2024-03-23T01:35:39;5.13;;;2.80;;
47778;SDS011;33538;48.432;11.350;2024-03-23T01:38:05;3.72;;;2.50;;
47778;SDS011;33538;48.432;11.350;2024-03-23T01:40:31;3.75;;;2.63;;
47778;SDS011;33538;48.432;11.350;2024-03-23T01:42:58;4.38;;;2.20;;
47778;SDS011;33538;48.432;11.350;2024-03-23T01:45:29;2.78;;;2.10;;
47778;SDS011;33538;48.432;11.350;2024-03-23T01:47:55;3.53;;;2.28;;
47778;SDS011;33538;48.432;11.350;2024-03-23T01:50:21;3.00;;;2.13;;
47778;SDS011;33538;48.432;11.350;2024-03-23T01:52:48;3.88;;;2.65;;
47778;SDS011;33538;48.432;11.350;2024-03-23T01:55:14;3.75;;;2.67;;
47778;SDS011;33538;48.432;11.350;2024-03-23T01:57:40;4.95;;;2.35;;
47778;SDS011;33538;48.432;11.350;2024-03-23T02:00:08;3.75;;;2.38;;
47778;SDS011;33538;48.432;11.350;2024-03-23T02:02:34;6.20;;;2.42;;
47778;SDS011;33538;48.432;11.350;2024-03-23T02:05:00;5.57;;;2.88;;
47778;SDS011;33538;48.432;11.350;2024-03-23T02:07:26;3.63;;;2.25;;
47778;SDS011;33538;48.432;11.350;2024-03-23T02:09:52;2.75;;;2.20;;
47778;SDS011;33538;48.432;11.350;2024-03-23T02:12:18;3.85;;;2.78;;
47778;SDS011;33538;48.432;11.350;2024-03-23T02:14:44;2.83;;;2.00;;
47778;SDS011;33538;48.432;11.350;2024-03-23T02:17:11;4.90;;;2.40;;
47778;SDS011;33538;48.432;11.350;2024-03-23T02:19:38;5.03;;;2.35;;
47778;SDS011;33538;48.432;11.350;2024-03-23T02:22:04;9.05;;;3.80;;
47778;SDS011;33538;48.432;11.350;2024-03-23T02:24:31;5.65;;;2.70;;
47778;SDS011;33538;48.432;11.350;2024-03-23T02:26:57;6.63;;;2.60;;
47778;SDS011;33538;48.432;11.350;2024-03-23T02:29:23;4.72;;;2.33;;
47778;SDS011;33538;48.432;11.350;2024-03-23T02:31:48;5.30;;;2.75;;
47778;SDS011;33538;48.432;11.350;2024-03-23T02:34:14;8.80;;;2.70;;
47778;SDS011;33538;48.432;11.350;2024-03-23T02:36:40;3.85;;;2.33;;
47778;SDS011;33538;48.432;11.350;2024-03-23T02:39:06;3.47;;;2.53;;
47778;SDS011;33538;48.432;11.350;2024-03-23T02:41:33;4.43;;;2.55;;
47778;SDS011;33538;48.432;11.350;2024-03-23T02:43:59;4.57;;;2.55;;
47778;SDS011;33538;48.432;11.350;2024-03-23T02:46:25;3.55;;;2.30;;
47778;SDS011;33538;48.432;11.350;2024-03-23T02:48:50;3.15;;;2.20;;
47778;SDS011;33538;48.432;11.350;2024-03-23T02:51:16;5.93;;;2.25;;
47778;SDS011;33538;48.432;11.350;2024-03-23T02:53:42;3.75;;;2.38;;
47778;SDS011;33538;48.432;11.350;2024-03-23T02:56:08;3.47;;;1.85;;
47778;SDS011;33538;48.432;11.350;2024-03-23T02:58:35;2.67;;;1.85;;
47778;SDS011;33538;48.432;11.350;2024-03-23T03:01:01;6.60;;;2.05;;
47778;SDS011;33538;48.432;11.350;2024-03-23T03:03:27;3.28;;;1.95;;
47778;SDS011;33538;48.432;11.350;2024-03-23T03:05:54;4.07;;;2.33;;
47778;SDS011;33538;48.432;11.350;2024-03-23T03:08:20;2.92;;;1.80;;
47778;SDS011;33538;48.432;11.350;2024-03-23T03:10:46;3.53;;;2.10;;
47778;SDS011;33538;48.432;11.350;2024-03-23T03:13:12;4.22;;;2.15;;
47778;SDS011;33538;48.432;11.350;2024-03-23T03:15:40;3.05;;;2.10;;
47778;SDS011;33538;48.432;11.350;2024-03-23T03:18:06;3.10;;;1.95;;
47778;SDS011;33538;48.432;11.350;2024-03-23T03:20:32;4.25;;;2.08;;
47778;SDS011;33538;48.432;11.350;2024-03-23T03:22:58;3.20;;;1.83;;
47778;SDS011;33538;48.432;11.350;2024-03-23T03:25:24;2.85;;;1.77;;
47778;SDS011;33538;48.432;11.350;2024-03-23T03:27:50;2.13;;;1.63;;
47778;SDS011;33538;48.432;11.350;2024-03-23T03:30:16;3.42;;;2.05;;
47778;SDS011;33538;48.432;11.350;2024-03-23T03:32:43;2.67;;;1.88;;
47778;SDS011;33538;48.432;11.350;2024-03-23T03:35:09;4.75;;;2.03;;
47778;SDS011;33538;48.432;11.350;2024-03-23T03:37:34;6.20;;;2.17;;
47778;SDS011;33538;48.432;11.350;2024-03-23T03:40:00;3.30;;;1.98;;
47778;SDS011;33538;48.432;11.350;2024-03-23T03:42:26;3.28;;;1.73;;
47778;SDS011;33538;48.432;11.350;2024-03-23T03:44:52;1.98;;;1.70;;
47778;SDS011;33538;48.432;11.350;2024-03-23T03:47:18;2.38;;;1.88;;
47778;SDS011;33538;48.432;11.350;2024-03-23T03:49:45;2.97;;;1.98;;
47778;SDS011;33538;48.432;11.350;2024-03-23T03:52:11;2.15;;;1.75;;
47778;SDS011;33538;48.432;11.350;2024-03-23T03:54:36;3.72;;;1.80;;
47778;SDS011;33538;48.432;11.350;2024-03-23T03:57:02;2.90;;;1.75;;
47778;SDS011;33538;48.432;11.350;2024-03-23T03:59:29;3.25;;;1.75;;
47778;SDS011;33538;48.432;11.350;2024-03-23T04:01:54;3.38;;;1.98;;
47778;SDS011;33538;48.432;11.350;2024-03-23T04:04:20;2.95;;;1.88;;
47778;SDS011;33538;48.432;11.350;2024-03-23T04:06:47;3.92;;;2.20;;
47778;SDS011;33538;48.432;11.350;2024-03-23T04:09:13;3.78;;;1.95;;
47778;SDS011;33538;48.432;11.350;2024-03-23T04:11:39;2.50;;;2.00;;
47778;SDS011;33538;48.432;11.350;2024-03-23T04:14:05;4.88;;;2.00;;
47778;SDS011;33538;48.432;11.350;2024-03-23T04:16:33;2.90;;;1.50;;
47778;SDS011;33538;48.432;11.350;2024-03-23T04:19:00;3.30;;;1.90;;
47778;SDS011;33538;48.432;11.350;2024-03-23T04:21:26;3.95;;;2.13;;
47778;SDS011;33538;48.432;11.350;2024-03-23T04:23:53;3.70;;;2.30;;
47778;SDS011;33538;48.432;11.350;2024-03-23T04:26:19;2.13;;;1.60;;
47778;SDS011;33538;48.432;11.350;2024-03-23T04:28:45;2.30;;;1.60;;
47778;SDS011;33538;48.432;11.350;2024-03-23T04:31:11;3.13;;;2.05;;
47778;SDS011;33538;48.432;11.350;2024-03-23T04:33:36;2.80;;;1.80;;
47778;SDS011;33538;48.432;11.350;2024-03-23T04:36:02;2.70;;;1.83;;
47778;SDS011;33538;48.432;11.350;2024-03-23T04:38:29;2.88;;;1.50;;
47778;SDS011;33538;48.432;11.350;2024-03-23T04:40:56;3.25;;;1.83;;
47778;SDS011;33538;48.432;11.350;2024-03-23T04:43:23;2.97;;;1.52;;
47778;SDS011;33538;48.432;11.350;2024-03-23T04:45:49;2.30;;;1.67;;
47778;SDS011;33538;48.432;11.350;2024-03-23T04:48:14;2.92;;;1.75;;
47778;SDS011;33538;48.432;11.350;2024-03-23T04:50:40;2.97;;;1.52;;
47778;SDS011;33538;48.432;11.350;2024-03-23T04:53:06;2.05;;;1.42;;
47778;SDS011;33538;48.432;11.350;2024-03-23T04:55:32;2.55;;;1.50;;
47778;SDS011;33538;48.432;11.350;2024-03-23T04:57:59;2.67;;;1.63;;
47778;SDS011;33538;48.432;11.350;2024-03-23T05:00:25;3.00;;;1.60;;
47778;SDS011;33538;48.432;11.350;2024-03-23T05:02:51;2.50;;;1.50;;
47778;SDS011;33538;48.432;11.350;2024-03-23T05:05:17;4.82;;;1.63;;
47778;SDS011;33538;48.432;11.350;2024-03-23T05:07:43;2.95;;;1.60;;
47778;SDS011;33538;48.432;11.350;2024-03-23T05:10:09;2.30;;;1.60;;
47778;SDS011;33538;48.432;11.350;2024-03-23T05:12:35;2.30;;;1.40;;
47778;SDS011;33538;48.432;11.350;2024-03-23T05:15:02;1.50;;;1.20;;
47778;SDS011;33538;48.432;11.350;2024-03-23T05:17:28;1.70;;;1.08;;
47778;SDS011;33538;48.432;11.350;2024-03-23T05:19:54;3.70;;;1.65;;
47778;SDS011;33538;48.432;11.350;2024-03-23T05:22:20;2.13;;;1.48;;
47778;SDS011;33538;48.432;11.350;2024-03-23T05:24:46;4.25;;;1.60;;
47778;SDS011;33538;48.432;11.350;2024-03-23T05:27:12;2.22;;;1.23;;
47778;SDS011;33538;48.432;11.350;2024-03-23T05:29:37;2.05;;;1.10;;
47778;SDS011;33538;48.432;11.350;2024-03-23T05:32:05;1.63;;;1.30;;
47778;SDS011;33538;48.432;11.350;2024-03-23T05:34:31;1.52;;;1.33;;
47778;SDS011;33538;48.432;11.350;2024-03-23T05:36:57;1.77;;;1.25;;
47778;SDS011;33538;48.432;11.350;2024-03-23T05:39:23;2.38;;;1.67;;
47778;SDS011;33538;48.432;11.350;2024-03-23T05:41:48;2.70;;;1.73;;
47778;SDS011;33538;48.432;11.350;2024-03-23T05:44:14;1.67;;;1.17;;
47778;SDS011;33538;48.432;11.350;2024-03-23T05:46:40;3.92;;;1.73;;
47778;SDS011;33538;48.432;11.350;2024-03-23T05:49:08;5.35;;;2.00;;
47778;SDS011;33538;48.432;11.350;2024-03-23T05:51:34;3.50;;;1.45;;
47778;SDS011;33538;48.432;11.350;2024-03-23T05:54:00;2.35;;;1.52;;
47778;SDS011;33538;48.432;11.350;2024-03-23T05:56:25;2.20;;;1.30;;
47778;SDS011;33538;48.432;11.350;2024-03-23T05:58:51;2.03;;;1.40;;
47778;SDS011;33538;48.432;11.350;2024-03-23T06:01:17;1.45;;;1.20;;
47778;SDS011;33538;48.432;11.350;2024-03-23T06:03:43;1.85;;;1.20;;
47778;SDS011;33538;48.432;11.350;2024-03-23T06:06:10;2.10;;;1.35;;
47778;SDS011;33538;48.432;11.350;2024-03-23T06:08:36;2.50;;;1.23;;
47778;SDS011;33538;48.432;11.350;2024-03-23T06:11:02;1.45;;;1.15;;
47778;SDS011;33538;48.432;11.350;2024-03-23T06:13:28;3.53;;;1.88;;
47778;SDS011;33538;48.432;11.350;2024-03-23T06:15:54;2.63;;;1.50;;
47778;SDS011;33538;48.432;11.350;2024-03-23T06:18:20;2.17;;;1.65;;
47778;SDS011;33538;48.432;11.350;2024-03-23T06:20:46;1.90;;;1.30;;
47778;SDS011;33538;48.432;11.350;2024-03-23T06:23:13;1.80;;;1.33;;
47778;SDS011;33538;48.432;11.350;2024-03-23T06:25:39;2.05;;;1.17;;
47778;SDS011;33538;48.432;11.350;2024-03-23T06:28:05;2.28;;;1.20;;
47778;SDS011;33538;48.432;11.350;2024-03-23T06:30:31;4.63;;;1.60;;
47778;SDS011;33538;48.432;11.350;2024-03-23T06:32:57;2.88;;;1.25;;
47778;SDS011;33538;48.432;11.350;2024-03-23T06:35:22;1.70;;;1.30;;
47778;SDS011;33538;48.432;11.350;2024-03-23T06:37:48;5.07;;;1.15;;
47778;SDS011;33538;48.432;11.350;2024-03-23T06:40:16;2.53;;;1.38;;
47778;SDS011;33538;48.432;11.350;2024-03-23T06:42:42;1.80;;;1.27;;
47778;SDS011;33538;48.432;11.350;2024-03-23T06:45:08;1.80;;;1.35;;
47778;SDS011;33538;48.432;11.350;2024-03-23T06:47:34;1.33;;;0.95;;
47778;SDS011;33538;48.432;11.350;2024-03-23T06:50:00;2.63;;;1.60;;
47778;SDS011;33538;48.432;11.350;2024-03-23T06:52:27;3.78;;;1.25;;
47778;SDS011;33538;48.432;11.350;2024-03-23T06:54:53;2.78;;;1.30;;
47778;SDS011;33538;48.432;11.350;2024-03-23T06:57:20;1.92;;;1.20;;
47778;SDS011;33538;48.432;11.350;2024-03-23T06:59:46;2.80;;;1.40;;
47778;SDS011;33538;48.432;11.350;2024-03-23T07:02:11;3.38;;;1.00;;
47778;SDS011;33538;48.432;11.350;2024-03-23T07:04:37;1.58;;;1.00;;
47778;SDS011;33538;48.432;11.350;2024-03-23T07:07:03;3.72;;;1.00;;
47778;SDS011;33538;48.432;11.350;2024-03-23T07:09:29;2.05;;;1.10;;
47778;SDS011;33538;48.432;11.350;2024-03-23T07:11:55;1.38;;;0.88;;
47778;SDS011;33538;48.432;11.350;2024-03-23T07:14:23;1.67;;;1.10;;
47778;SDS011;33538;48.432;11.350;2024-03-23T07:16:49;1.77;;;0.93;;
47778;SDS011;33538;48.432;11.350;2024-03-23T07:19:15;4.18;;;0.80;;
47778;SDS011;33538;48.432;11.350;2024-03-23T07:21:41;1.45;;;0.55;;
47778;SDS011;33538;48.432;11.350;2024-03-23T07:24:07;2.28;;;1.13;;
47778;SDS011;33538;48.432;11.350;2024-03-23T07:26:33;2.55;;;1.00;;
47778;SDS011;33538;48.432;11.350;2024-03-23T07:28:59;6.03;;;1.13;;
47778;SDS011;33538;48.432;11.350;2024-03-23T07:31:26;1.65;;;0.75;;
47778;SDS011;33538;48.432;11.350;2024-03-23T07:33:52;0.47;;;0.40;;
47778;SDS011;33538;48.432;11.350;2024-03-23T07:36:19;1.90;;;1.38;;
47778;SDS011;33538;48.432;11.350;2024-03-23T07:38:45;3.95;;;1.48;;
47778;SDS011;33538;48.432;11.350;2024-03-23T07:41:11;2.40;;;1.60;;
47778;SDS011;33538;48.432;11.350;2024-03-23T07:43:39;3.42;;;1.98;;
47778;SDS011;33538;48.432;11.350;2024-03-23T07:46:05;4.65;;;2.22;;
47778;SDS011;33538;48.432;11.350;2024-03-23T07:48:33;5.28;;;3.15;;
47778;SDS011;33538;48.432;11.350;2024-03-23T07:50:59;6.22;;;2.88;;
47778;SDS011;33538;48.432;11.350;2024-03-23T07:53:26;6.30;;;3.33;;
47778;SDS011;33538;48.432;11.350;2024-03-23T07:55:54;7.30;;;2.70;;
47778;SDS011;33538;48.432;11.350;2024-03-23T07:58:21;4.75;;;3.05;;
47778;SDS011;33538;48.432;11.350;2024-03-23T08:00:47;7.53;;;3.00;;
47778;SDS011;33538;48.432;11.350;2024-03-23T08:03:13;3.63;;;2.08;;
47778;SDS011;33538;48.432;11.350;2024-03-23T08:05:40;3.28;;;2.33;;
47778;SDS011;33538;48.432;11.350;2024-03-23T08:08:06;3.58;;;2.25;;
47778;SDS011;33538;48.432;11.350;2024-03-23T08:10:32;4.22;;;1.83;;
47778;SDS011;33538;48.432;11.350;2024-03-23T08:12:58;2.13;;;1.27;;
47778;SDS011;33538;48.432;11.350;2024-03-23T08:15:23;3.55;;;1.80;;
47778;SDS011;33538;48.432;11.350;2024-03-23T08:17:49;3.13;;;1.48;;
47778;SDS011;33538;48.432;11.350;2024-03-23T08:20:15;4.50;;;1.77;;
47778;SDS011;33538;48.432;11.350;2024-03-23T08:22:42;2.58;;;1.73;;
47778;SDS011;33538;48.432;11.350;2024-03-23T08:25:08;4.85;;;1.98;;
47778;SDS011;33538;48.432;11.350;2024-03-23T08:27:34;3.83;;;1.60;;
47778;SDS011;33538;48.432;11.350;2024-03-23T08:30:00;3.08;;;1.77;;
47778;SDS011;33538;48.432;11.350;2024-03-23T08:32:26;4.60;;;1.80;;
47778;SDS011;33538;48.432;11.350;2024-03-23T08:34:52;5.97;;;1.45;;
47778;SDS011;33538;48.432;11.350;2024-03-23T08:37:17;1.85;;;1.38;;
47778;SDS011;33538;48.432;11.350;2024-03-23T08:39:45;3.13;;;1.73;;
47778;SDS011;33538;48.432;11.350;2024-03-23T08:42:11;2.80;;;1.35;;
47778;SDS011;33538;48.432;11.350;2024-03-23T08:44:36;2.75;;;1.13;;
47778;SDS011;33538;48.432;11.350;2024-03-23T08:47:02;3.25;;;1.00;;
47778;SDS011;33538;48.432;11.350;2024-03-23T08:49:29;1.55;;;1.13;;
47778;SDS011;33538;48.432;11.350;2024-03-23T08:51:55;3.08;;;1.40;;
47778;SDS011;33538;48.432;11.350;2024-03-23T08:54:21;2.13;;;1.20;;
47778;SDS011;33538;48.432;11.350;2024-03-23T08:56:49;2.17;;;1.42;;
47778;SDS011;33538;48.432;11.350;2024-03-23T08:59:15;3.67;;;1.30;;
47778;SDS011;33538;48.432;11.350;2024-03-23T09:01:41;0.95;;;0.85;;
47778;SDS011;33538;48.432;11.350;2024-03-23T09:04:08;1.63;;;1.23;;
47778;SDS011;33538;48.432;11.350;2024-03-23T09:06:34;2.35;;;1.00;;
47778;SDS011;33538;48.432;11.350;2024-03-23T09:09:01;1.65;;;1.08;;
47778;SDS011;33538;48.432;11.350;2024-03-23T09:11:27;1.58;;;1.00;;
47778;SDS011;33538;48.432;11.350;2024-03-23T09:13:55;1.73;;;1.27;;
47778;SDS011;33538;48.432;11.350;2024-03-23T09:16:21;3.53;;;1.23;;
47778;SDS011;33538;48.432;11.350;2024-03-23T09:18:47;1.58;;;1.10;;
47778;SDS011;33538;48.432;11.350;2024-03-23T09:21:13;1.92;;;1.25;;
47778;SDS011;33538;48.432;11.350;2024-03-23T09:23:39;1.55;;;1.10;;
47778;SDS011;33538;48.432;11.350;2024-03-23T09:26:05;2.95;;;1.13;;
47778;SDS011;33538;48.432;11.350;2024-03-23T09:28:32;1.15;;;1.00;;
47778;SDS011;33538;48.432;11.350;2024-03-23T09:31:03;3.20;;;1.30;;
47778;SDS011;33538;48.432;11.350;2024-03-23T09:33:29;1.30;;;0.85;;
47778;SDS011;33538;48.432;11.350;2024-03-23T09:35:55;1.75;;;0.95;;
47778;SDS011;33538;48.432;11.350;2024-03-23T09:38:22;2.67;;;0.95;;
47778;SDS011;33538;48.432;11.350;2024-03-23T09:40:48;2.65;;;1.45;;
47778;SDS011;33538;48.432;11.350;2024-03-23T09:43:18;3.45;;;1.00;;
47778;SDS011;33538;48.432;11.350;2024-03-23T09:45:44;2.35;;;1.05;;
47778;SDS011;33538;48.432;11.350;2024-03-23T09:48:12;1.25;;;0.73;;
47778;SDS011;33538;48.432;11.350;2024-03-23T09:50:39;1.25;;;0.70;;
47778;SDS011;33538;48.432;11.350;2024-03-23T09:53:05;0.68;;;0.57;;
47778;SDS011;33538;48.432;11.350;2024-03-23T09:55:32;1.10;;;0.60;;
47778;SDS011;33538;48.432;11.350;2024-03-23T09:57:59;0.63;;;0.57;;
47778;SDS011;33538;48.432;11.350;2024-03-23T10:00:25;0.68;;;0.50;;
47778;SDS011;33538;48.432;11.350;2024-03-23T10:02:51;0.38;;;0.35;;
47778;SDS011;33538;48.432;11.350;2024-03-23T10:05:21;4.28;;;0.50;;
47778;SDS011;33538;48.432;11.350;2024-03-23T10:07:48;0.43;;;0.40;;
47778;SDS011;33538;48.432;11.350;2024-03-23T10:10:15;0.38;;;0.38;;
47778;SDS011;33538;48.432;11.350;2024-03-23T10:12:43;0.50;;;0.40;;
47778;SDS011;33538;48.432;11.350;2024-03-23T10:15:12;0.30;;;0.30;;
47778;SDS011;33538;48.432;11.350;2024-03-23T10:17:43;0.30;;;0.30;;
47778;SDS011;33538;48.432;11.350;2024-03-23T10:20:09;0.35;;;0.30;;
47778;SDS011;33538;48.432;11.350;2024-03-23T10:22:37;1.85;;;0.30;;
47778;SDS011;33538;48.432;11.350;2024-03-23T10:25:07;0.52;;;0.22;;
47778;SDS011;33538;48.432;11.350;2024-03-23T10:27:33;0.10;;;0.10;;
47778;SDS011;33538;48.432;11.350;2024-03-23T10:30:07;0.35;;;0.35;;
47778;SDS011;33538;48.432;11.350;2024-03-23T10:32:33;0.25;;;0.25;;
47778;SDS011;33538;48.432;11.350;2024-03-23T10:35:13;0.82;;;0.40;;
47778;SDS011;33538;48.432;11.350;2024-03-23T10:37:41;0.38;;;0.38;;
47778;SDS011;33538;48.432;11.350;2024-03-23T10:40:09;0.47;;;0.40;;
47778;SDS011;33538;48.432;11.350;2024-03-23T10:42:36;0.43;;;0.43;;
47778;SDS011;33538;48.432;11.350;2024-03-23T10:45:03;0.70;;;0.40;;
47778;SDS011;33538;48.432;11.350;2024-03-23T10:47:30;0.38;;;0.38;;
47778;SDS011;33538;48.432;11.350;2024-03-23T10:49:56;1.25;;;1.15;;
47778;SDS011;33538;48.432;11.350;2024-03-23T10:52:22;1.50;;;1.15;;
47778;SDS011;33538;48.432;11.350;2024-03-23T10:54:49;1.05;;;0.90;;
47778;SDS011;33538;48.432;11.350;2024-03-23T10:57:17;1.08;;;0.80;;
47778;SDS011;33538;48.432;11.350;2024-03-23T10:59:46;0.50;;;0.50;;
47778;SDS011;33538;48.432;11.350;2024-03-23T11:02:18;1.00;;;0.90;;
47778;SDS011;33538;48.432;11.350;2024-03-23T11:04:44;1.20;;;0.52;;
47778;SDS011;33538;48.432;11.350;2024-03-23T11:09:55;1.48;;;0.93;;
47778;SDS011;33538;48.432;11.350;2024-03-23T11:12:28;0.55;;;0.40;;
47778;SDS011;33538;48.432;11.350;2024-03-23T11:14:55;0.60;;;0.60;;
47778;SDS011;33538;48.432;11.350;2024-03-23T11:17:23;0.38;;;0.38;;
47778;SDS011;33538;48.432;11.350;2024-03-23T11:19:53;0.32;;;0.32;;
47778;SDS011;33538;48.432;11.350;2024-03-23T11:22:39;2.65;;;1.05;;
47778;SDS011;33538;48.432;11.350;2024-03-23T11:25:14;1.77;;;1.17;;
47778;SDS011;33538;48.432;11.350;2024-03-23T11:27:44;0.70;;;0.70;;
47778;SDS011;33538;48.432;11.350;2024-03-23T11:30:14;0.85;;;0.60;;
47778;SDS011;33538;48.432;11.350;2024-03-23T11:32:42;3.33;;;0.50;;
47778;SDS011;33538;48.432;11.350;2024-03-23T11:35:08;0.90;;;0.52;;
47778;SDS011;33538;48.432;11.350;2024-03-23T11:37:34;0.50;;;0.35;;
47778;SDS011;33538;48.432;11.350;2024-03-23T11:40:00;2.63;;;0.93;;
47778;SDS011;33538;48.432;11.350;2024-03-23T11:42:27;0.95;;;0.63;;
47778;SDS011;33538;48.432;11.350;2024-03-23T11:44:53;1.67;;;0.90;;
47778;SDS011;33538;48.432;11.350;2024-03-23T11:47:19;0.75;;;0.50;;
47778;SDS011;33538;48.432;11.350;2024-03-23T11:49:45;0.95;;;0.50;;
47778;SDS011;33538;48.432;11.350;2024-03-23T11:52:14;1.60;;;0.90;;
47778;SDS011;33538;48.432;11.350;2024-03-23T11:54:41;4.13;;;1.45;;
47778;SDS011;33538;48.432;11.350;2024-03-23T11:57:07;1.25;;;0.88;;
47778;SDS011;33538;48.432;11.350;2024-03-23T11:59:35;3.70;;;1.33;;
47778;SDS011;33538;48.432;11.350;2024-03-23T12:02:05;2.88;;;1.33;;
47778;SDS011;33538;48.432;11.350;2024-03-23T12:04:32;2.45;;;1.30;;
47778;SDS011;33538;48.432;11.350;2024-03-23T12:07:14;1.45;;;0.80;;
47778;SDS011;33538;48.432;11.350;2024-03-23T12:09:41;2.78;;;1.00;;
47778;SDS011;33538;48.432;11.350;2024-03-23T12:12:10;1.38;;;1.10;;
47778;SDS011;33538;48.432;11.350;2024-03-23T12:14:40;4.35;;;1.77;;
47778;SDS011;33538;48.432;11.350;2024-03-23T12:17:09;4.85;;;1.23;;
47778;SDS011;33538;48.432;11.350;2024-03-23T12:19:36;1.20;;;0.90;;
47778;SDS011;33538;48.432;11.350;2024-03-23T12:22:02;1.17;;;0.90;;
47778;SDS011;33538;48.432;11.350;2024-03-23T12:24:28;1.60;;;0.95;;
47778;SDS011;33538;48.432;11.350;2024-03-23T12:26:54;1.50;;;1.30;;
47778;SDS011;33538;48.432;11.350;2024-03-23T12:29:20;1.65;;;1.15;;
47778;SDS011;33538;48.432;11.350;2024-03-23T12:31:47;3.35;;;0.95;;
47778;SDS011;33538;48.432;11.350;2024-03-23T12:34:13;2.17;;;1.30;;
47778;SDS011;33538;48.432;11.350;2024-03-23T12:36:39;1.00;;;0.90;;
47778;SDS011;33538;48.432;11.350;2024-03-23T12:39:05;6.80;;;1.73;;
47778;SDS011;33538;48.432;11.350;2024-03-23T12:41:31;0.95;;;0.85;;
47778;SDS011;33538;48.432;11.350;2024-03-23T12:43:56;3.35;;;1.40;;
47778;SDS011;33538;48.432;11.350;2024-03-23T12:46:22;2.13;;;1.23;;
47778;SDS011;33538;48.432;11.350;2024-03-23T12:48:49;4.25;;;1.20;;
47778;SDS011;33538;48.432;11.350;2024-03-23T12:51:15;4.32;;;1.50;;
47778;SDS011;33538;48.432;11.350;2024-03-23T12:53:41;2.28;;;1.40;;
47778;SDS011;33538;48.432;11.350;2024-03-23T12:56:07;2.72;;;1.23;;
47778;SDS011;33538;48.432;11.350;2024-03-23T12:58:37;2.22;;;1.40;;
47778;SDS011;33538;48.432;11.350;2024-03-23T13:01:03;2.58;;;1.48;;
47778;SDS011;33538;48.432;11.350;2024-03-23T13:03:29;3.83;;;1.60;;
47778;SDS011;33538;48.432;11.350;2024-03-23T13:05:56;1.50;;;0.98;;
47778;SDS011;33538;48.432;11.350;2024-03-23T13:09:24;4.13;;;1.30;;
47778;SDS011;33538;48.432;11.350;2024-03-23T13:11:49;1.73;;;1.20;;
47778;SDS011;33538;48.432;11.350;2024-03-23T13:14:15;2.15;;;1.30;;
47778;SDS011;33538;48.432;11.350;2024-03-23T13:16:41;3.75;;;1.38;;
47778;SDS011;33538;48.432;11.350;2024-03-23T13:19:07;1.92;;;1.35;;
47778;SDS011;33538;48.432;11.350;2024-03-23T13:21:33;7.45;;;2.05;;
47778;SDS011;33538;48.432;11.350;2024-03-23T13:23:59;5.10;;;2.60;;
47778;SDS011;33538;48.432;11.350;2024-03-23T13:26:26;1.23;;;0.95;;
47778;SDS011;33538;48.432;11.350;2024-03-23T13:28:52;3.53;;;2.63;;
47778;SDS011;33538;48.432;11.350;2024-03-23T13:31:18;4.20;;;1.73;;
47778;SDS011;33538;48.432;11.350;2024-03-23T13:33:44;1.90;;;1.40;;
47778;SDS011;33538;48.432;11.350;2024-03-23T13:36:11;1.35;;;1.25;;
47778;SDS011;33538;48.432;11.350;2024-03-23T13:38:37;1.73;;;1.15;;
47778;SDS011;33538;48.432;11.350;2024-03-23T13:41:03;2.25;;;1.27;;
47778;SDS011;33538;48.432;11.350;2024-03-23T13:43:30;3.13;;;1.70;;
47778;SDS011;33538;48.432;11.350;2024-03-23T13:45:57;5.03;;;1.40;;
47778;SDS011;33538;48.432;11.350;2024-03-23T13:48:24;3.72;;;2.58;;
47778;SDS011;33538;48.432;11.350;2024-03-23T13:50:58;4.95;;;3.15;;
47778;SDS011;33538;48.432;11.350;2024-03-23T13:53:23;6.95;;;2.78;;
47778;SDS011;33538;48.432;11.350;2024-03-23T13:55:49;4.18;;;2.38;;
47778;SDS011;33538;48.432;11.350;2024-03-23T13:58:15;2.40;;;1.58;;
47778;SDS011;33538;48.432;11.350;2024-03-23T14:00:43;1.70;;;1.10;;
47778;SDS011;33538;48.432;11.350;2024-03-23T14:03:09;6.05;;;3.42;;
47778;SDS011;33538;48.432;11.350;2024-03-23T14:05:35;4.88;;;2.55;;
47778;SDS011;33538;48.432;11.350;2024-03-23T14:08:01;2.10;;;1.85;;
47778;SDS011;33538;48.432;11.350;2024-03-23T14:10:26;1.98;;;1.05;;
47778;SDS011;33538;48.432;11.350;2024-03-23T14:12:52;3.28;;;1.77;;
47778;SDS011;33538;48.432;11.350;2024-03-23T14:15:18;1.92;;;1.20;;
47778;SDS011;33538;48.432;11.350;2024-03-23T14:17:46;2.35;;;1.40;;
47778;SDS011;33538;48.432;11.350;2024-03-23T14:20:12;2.78;;;1.42;;
47778;SDS011;33538;48.432;11.350;2024-03-23T14:22:37;2.67;;;1.05;;
47778;SDS011;33538;48.432;11.350;2024-03-23T14:25:04;2.25;;;1.02;;
47778;SDS011;33538;48.432;11.350;2024-03-23T14:27:30;1.20;;;0.93;;
47778;SDS011;33538;48.432;11.350;2024-03-23T14:29:56;1.80;;;0.95;;
47778;SDS011;33538;48.432;11.350;2024-03-23T14:32:22;0.88;;;0.80;;
47778;SDS011;33538;48.432;11.350;2024-03-23T14:34:49;1.02;;;0.88;;
47778;SDS011;33538;48.432;11.350;2024-03-23T14:37:15;1.55;;;1.05;;
47778;SDS011;33538;48.432;11.350;2024-03-23T14:39:41;7.95;;;1.65;;
47778;SDS011;33538;48.432;11.350;2024-03-23T14:42:07;2.65;;;0.90;;
47778;SDS011;33538;48.432;11.350;2024-03-23T14:44:32;0.90;;;0.80;;
47778;SDS011;33538;48.432;11.350;2024-03-23T14:46:58;1.77;;;0.90;;
47778;SDS011;33538;48.432;11.350;2024-03-23T14:49:25;1.85;;;0.88;;
47778;SDS011;33538;48.432;11.350;2024-03-23T14:51:52;2.22;;;0.93;;
47778;SDS011;33538;48.432;11.350;2024-03-23T14:54:18;0.90;;;0.68;;
47778;SDS011;33538;48.432;11.350;2024-03-23T14:56:43;1.48;;;0.93;;
47778;SDS011;33538;48.432;11.350;2024-03-23T14:59:09;2.55;;;0.90;;
47778;SDS011;33538;48.432;11.350;2024-03-23T15:01:35;2.85;;;0.70;;
47778;SDS011;33538;48.432;11.350;2024-03-23T15:04:01;7.32;;;1.27;;
47778;SDS011;33538;48.432;11.350;2024-03-23T15:06:27;4.15;;;1.02;;
47778;SDS011;33538;48.432;11.350;2024-03-23T15:08:54;2.80;;;1.00;;
47778;SDS011;33538;48.432;11.350;2024-03-23T15:11:20;1.58;;;0.77;;
47778;SDS011;33538;48.432;11.350;2024-03-23T15:13:45;2.65;;;0.90;;
47778;SDS011;33538;48.432;11.350;2024-03-23T15:16:16;1.13;;;0.85;;
47778;SDS011;33538;48.432;11.350;2024-03-23T15:18:42;1.88;;;0.90;;
47778;SDS011;33538;48.432;11.350;2024-03-23T15:21:08;1.80;;;0.90;;
47778;SDS011;33538;48.432;11.350;2024-03-23T15:23:34;1.63;;;0.65;;
47778;SDS011;33538;48.432;11.350;2024-03-23T15:26:01;2.78;;;0.80;;